createdAt,value
2022-07-29T00:04:04.055Z,2.13
2022-07-29T00:09:09.641Z,1.80
2022-07-29T00:14:13.581Z,2.15
2022-07-29T00:19:17.370Z,2.65
2022-07-29T00:24:22.627Z,2.15
2022-07-29T00:29:34.692Z,2.05
2022-07-29T00:34:38.792Z,2.15
2022-07-29T00:39:44.363Z,2.10
2022-07-29T00:44:48.197Z,1.95
2022-07-29T00:49:51.859Z,2.00
2022-07-29T00:54:57.729Z,2.08
2022-07-29T01:00:01.365Z,1.98
2022-07-29T01:05:05.657Z,2.05
2022-07-29T01:10:14.074Z,2.00
2022-07-29T01:15:17.979Z,2.08
2022-07-29T01:20:31.305Z,2.17
2022-07-29T01:26:16.451Z,2.20
2022-07-29T01:31:33.838Z,2.30
2022-07-29T01:36:47.268Z,2.35
2022-07-29T01:42:03.821Z,2.15
2022-07-29T01:47:16.276Z,2.03
2022-07-29T01:52:25.364Z,1.80
2022-07-29T01:57:32.712Z,2.10
2022-07-29T02:02:39.522Z,1.70
2022-07-29T02:07:44.819Z,1.80
2022-07-29T02:12:50.958Z,2.05
2022-07-29T02:17:59.906Z,3.25
2022-07-29T02:23:05.226Z,2.60
2022-07-29T02:28:10.489Z,1.63
2022-07-29T02:33:17.804Z,1.63
2022-07-29T02:38:24.011Z,1.70
2022-07-29T02:43:28.257Z,1.60
2022-07-29T02:48:38.256Z,1.50
2022-07-29T02:53:45.523Z,1.75
2022-07-29T02:58:55.287Z,1.70
2022-07-29T03:04:05.055Z,1.70
2022-07-29T03:09:13.243Z,1.50
2022-07-29T03:14:19.456Z,1.27
2022-07-29T03:19:25.106Z,1.48
2022-07-29T03:24:30.251Z,1.88
2022-07-29T03:34:40.139Z,1.42
2022-07-29T03:39:44.724Z,1.40
2022-07-29T03:44:50.658Z,1.83
2022-07-29T03:50:01.450Z,1.40
2022-07-29T03:55:05.722Z,1.33
2022-07-29T04:00:11.273Z,1.63
2022-07-29T04:05:17.486Z,1.40
2022-07-29T04:10:25.214Z,1.42
2022-07-29T04:15:35.092Z,1.48
2022-07-29T04:20:40.391Z,1.40
2022-07-29T04:30:47.902Z,1.48
2022-07-29T04:35:55.636Z,1.42
2022-07-29T04:40:59.275Z,1.77
2022-07-29T04:46:03.034Z,1.90
2022-07-29T04:51:09.205Z,1.58
2022-07-29T04:56:12.804Z,1.77
2022-07-29T05:01:16.634Z,2.10
2022-07-29T05:06:21.900Z,1.90
2022-07-29T05:11:30.291Z,1.90
2022-07-29T05:16:34.202Z,1.98
2022-07-29T05:21:41.837Z,1.67
2022-07-29T05:26:45.459Z,1.83
2022-07-29T05:31:49.059Z,2.00
2022-07-29T05:36:54.475Z,1.75
2022-07-29T05:47:00.890Z,1.48
2022-07-29T05:52:06.648Z,1.50
2022-07-29T05:57:16.507Z,1.55
2022-07-29T06:02:20.381Z,1.80
2022-07-29T06:07:25.731Z,1.70
2022-07-29T06:12:29.353Z,1.90
2022-07-29T06:17:32.935Z,1.52
2022-07-29T06:22:38.223Z,1.90
2022-07-29T06:27:41.804Z,1.63
2022-07-29T06:32:45.378Z,1.95
2022-07-29T06:37:50.607Z,2.00
2022-07-29T06:42:58.898Z,1.77
2022-07-29T06:48:02.509Z,1.60
2022-07-29T06:53:07.750Z,1.92
2022-07-29T06:58:11.375Z,1.50
2022-07-29T07:03:14.974Z,1.63
2022-07-29T07:08:20.321Z,1.67
2022-07-29T07:13:23.948Z,1.85
2022-07-29T07:18:27.515Z,1.75
2022-07-29T07:23:32.829Z,1.80
2022-07-29T07:28:36.427Z,1.48
2022-07-29T07:33:40.091Z,1.60
2022-07-29T07:38:45.332Z,1.83
2022-07-29T07:43:48.948Z,1.70
2022-07-29T07:48:52.634Z,1.73
2022-07-29T07:53:58.898Z,1.55
2022-07-29T07:59:03.262Z,1.60
2022-07-29T08:04:07.006Z,1.70
2022-07-29T08:09:28.275Z,1.60
2022-07-29T08:14:33.482Z,1.52
2022-07-29T08:19:39.032Z,1.48
2022-07-29T08:24:44.295Z,1.30
2022-07-29T08:29:47.924Z,1.25
2022-07-29T08:34:51.567Z,1.70
2022-07-29T08:39:56.780Z,1.50
2022-07-29T08:45:01.233Z,1.50
2022-07-29T08:50:05.513Z,1.05
2022-07-29T08:55:11.655Z,1.33
2022-07-29T09:00:15.823Z,1.55
2022-07-29T09:05:20.831Z,1.30
2022-07-29T09:10:26.214Z,1.53
2022-07-29T09:15:30.066Z,1.30
2022-07-29T09:20:33.780Z,1.60
2022-07-29T09:25:40.214Z,1.40
2022-07-29T09:30:53.303Z,1.60
2022-07-29T09:36:07.663Z,1.45
2022-07-29T09:41:12.962Z,1.33
2022-07-29T09:46:16.859Z,1.65
2022-07-29T09:51:25.543Z,1.70
2022-07-29T09:56:44.261Z,1.63
2022-07-29T10:01:48.004Z,1.20
2022-07-29T10:07:09.038Z,1.40
2022-07-29T10:12:16.078Z,1.50
2022-07-29T10:17:20.355Z,1.38
2022-07-29T10:22:50.772Z,1.50
2022-07-29T10:27:50.698Z,1.60
2022-07-29T10:33:17.965Z,1.50
2022-07-29T10:38:45.633Z,1.40
2022-07-29T10:43:52.542Z,1.20
2022-07-29T10:49:11.353Z,1.55
2022-07-29T10:54:15.209Z,1.30
2022-07-29T10:59:36.138Z,1.10
2022-07-29T11:05:01.637Z,1.40
2022-07-29T11:10:26.992Z,1.92
2022-07-29T11:15:55.367Z,1.38
2022-07-29T11:20:59.131Z,1.30
2022-07-29T11:26:19.738Z,1.25
2022-07-29T11:31:35.750Z,1.20
2022-07-29T11:42:35.337Z,1.23
2022-07-29T11:47:42.297Z,1.13
2022-07-29T11:52:50.105Z,1.35
2022-07-29T11:58:03.770Z,1.40
2022-07-29T12:03:11.406Z,1.40
2022-07-29T12:08:17.026Z,1.10
2022-07-29T12:13:22.231Z,1.17
2022-07-29T12:18:27.783Z,1.20
2022-07-29T12:23:34.996Z,0.85
2022-07-29T12:28:40.112Z,1.20
2022-07-29T12:33:53.577Z,1.02
2022-07-29T12:38:57.293Z,1.23
2022-07-29T12:44:00.863Z,1.13
2022-07-29T12:49:06.162Z,1.20
2022-07-29T12:54:11.563Z,0.90
2022-07-29T12:59:16.737Z,0.90
2022-07-29T13:04:32.325Z,1.40
2022-07-29T13:09:40.123Z,0.90
2022-07-29T13:14:44.567Z,1.40
2022-07-29T13:19:51.375Z,0.80
2022-07-29T13:24:56.180Z,1.15
2022-07-29T13:30:00.783Z,1.50
2022-07-29T13:35:08.555Z,1.45
2022-07-29T13:40:13.251Z,1.67
2022-07-29T13:45:16.880Z,1.23
2022-07-29T13:50:22.174Z,1.33
2022-07-29T13:55:25.963Z,1.20
2022-07-29T14:00:29.562Z,1.20
2022-07-29T14:05:34.867Z,0.90
2022-07-29T14:10:38.515Z,0.52
2022-07-29T14:15:42.204Z,0.90
2022-07-29T14:20:47.461Z,0.60
2022-07-29T14:25:51.139Z,0.70
2022-07-29T14:30:54.899Z,0.90
2022-07-29T14:36:00.976Z,1.27
2022-07-29T14:41:05.095Z,1.27
2022-07-29T14:46:08.794Z,1.60
2022-07-29T14:51:14.089Z,1.20
2022-07-29T14:56:36.138Z,1.45
2022-07-29T15:01:40.967Z,1.30
2022-07-29T15:06:47.047Z,1.40
2022-07-29T15:11:50.831Z,1.00
2022-07-29T15:16:54.450Z,1.05
2022-07-29T15:22:01.222Z,1.20
2022-07-29T15:27:05.294Z,1.33
2022-07-29T15:32:09.143Z,1.40
2022-07-29T15:37:14.428Z,1.00
2022-07-29T15:42:18.802Z,1.20
2022-07-29T15:47:22.378Z,1.30
2022-07-29T15:52:30.345Z,1.08
2022-07-29T15:57:34.002Z,1.00
2022-07-29T16:02:37.607Z,1.25
2022-07-29T16:07:42.860Z,1.13
2022-07-29T16:17:49.290Z,1.00
2022-07-29T16:22:54.581Z,1.00
2022-07-29T16:27:59.901Z,0.95
2022-07-29T16:33:08.036Z,0.85
2022-07-29T16:38:13.707Z,1.08
2022-07-29T16:43:17.323Z,0.82
2022-07-29T16:48:20.954Z,1.00
2022-07-29T16:53:30.079Z,0.80
2022-07-29T16:58:33.930Z,1.00
2022-07-29T17:03:37.556Z,1.23
2022-07-29T17:08:42.917Z,0.85
2022-07-29T17:13:46.539Z,1.00
2022-07-29T17:18:50.187Z,0.90
2022-07-29T17:23:55.518Z,0.90
2022-07-29T17:28:59.125Z,0.80
2022-07-29T17:34:02.738Z,0.80
2022-07-29T17:39:09.085Z,0.75
2022-07-29T17:44:12.682Z,1.00
2022-07-29T17:49:16.338Z,0.93
2022-07-29T17:54:24.422Z,0.80
2022-07-29T17:59:30.368Z,0.63
2022-07-29T18:04:34.004Z,0.90
2022-07-29T18:09:39.252Z,0.70
2022-07-29T18:14:42.891Z,0.75
2022-07-29T18:19:46.473Z,0.73
2022-07-29T18:24:51.767Z,1.00
2022-07-29T18:29:55.586Z,0.85
2022-07-29T18:34:59.220Z,0.80
2022-07-29T18:40:04.637Z,0.98
2022-07-29T18:45:18.997Z,0.80
2022-07-29T18:50:26.912Z,0.70
2022-07-29T18:55:34.124Z,0.80
2022-07-29T19:00:37.715Z,1.00
2022-07-29T19:05:41.367Z,0.90
2022-07-29T19:10:46.636Z,1.10
2022-07-29T19:15:50.323Z,1.15
2022-07-29T19:20:53.969Z,1.05
2022-07-29T19:25:59.212Z,1.20
2022-07-29T19:31:04.027Z,1.33
2022-07-29T19:36:08.569Z,1.30
2022-07-29T19:41:13.813Z,1.70
2022-07-29T19:46:17.460Z,1.40
2022-07-29T19:51:21.352Z,1.75
2022-07-29T19:56:26.540Z,2.10
2022-07-29T20:01:30.203Z,1.67
2022-07-29T20:06:37.102Z,1.97
2022-07-29T20:11:42.305Z,1.85
2022-07-29T20:16:45.939Z,1.80
2022-07-29T20:21:49.510Z,2.10
2022-07-29T20:26:54.835Z,2.30
2022-07-29T20:31:58.441Z,2.10
2022-07-29T20:37:02.403Z,1.73
2022-07-29T20:42:08.334Z,1.88
2022-07-29T20:47:11.928Z,1.80
2022-07-29T20:52:15.540Z,2.10
2022-07-29T20:57:38.668Z,1.93
2022-07-29T21:02:43.453Z,2.27
2022-07-29T21:07:47.059Z,2.23
2022-07-29T21:12:52.313Z,2.10
2022-07-29T21:17:55.966Z,2.03
2022-07-29T21:23:00.455Z,2.10
2022-07-29T21:28:07.502Z,2.30
2022-07-29T21:33:11.399Z,2.40
2022-07-29T21:38:17.172Z,2.47
2022-07-29T21:43:22.892Z,2.33
2022-07-29T21:48:27.672Z,2.40
2022-07-29T21:53:31.336Z,2.40
2022-07-29T21:58:36.548Z,2.60
2022-07-29T22:03:40.122Z,2.20
2022-07-29T22:08:43.707Z,2.30
2022-07-29T22:13:48.940Z,2.40
2022-07-29T22:18:52.555Z,2.58
2022-07-29T22:23:56.139Z,2.40
2022-07-29T22:29:01.373Z,2.40
2022-07-29T22:34:04.946Z,2.00
2022-07-29T22:39:09.059Z,2.10
2022-07-29T22:44:14.312Z,2.33
2022-07-29T22:49:17.991Z,2.30
2022-07-29T22:54:21.603Z,2.20
2022-07-29T22:59:26.828Z,2.13
2022-07-29T23:04:30.456Z,2.70
2022-07-29T23:09:34.136Z,2.20
2022-07-29T23:14:40.616Z,2.25
2022-07-29T23:19:44.295Z,2.28
2022-07-29T23:24:48.616Z,2.50
2022-07-29T23:29:53.851Z,2.60
2022-07-29T23:34:57.447Z,2.42
2022-07-29T23:40:01.111Z,2.83
2022-07-29T23:45:07.096Z,2.77
2022-07-29T23:50:12.258Z,2.60
2022-07-29T23:55:37.465Z,2.63
